createdAt,value
2022-09-10T00:00:09.118Z,6.40
2022-09-10T00:04:19.755Z,9.23
2022-09-10T00:08:28.787Z,4.73
2022-09-10T00:12:38.038Z,7.63
2022-09-10T00:16:47.285Z,5.03
2022-09-10T00:20:59.723Z,7.63
2022-09-10T00:25:09.809Z,6.70
2022-09-10T00:29:20.124Z,9.17
2022-09-10T00:33:30.331Z,4.90
2022-09-10T00:37:41.103Z,7.10
2022-09-10T00:41:52.782Z,10.00
2022-09-10T00:46:02.245Z,8.23
2022-09-10T00:50:21.970Z,7.90
2022-09-10T00:54:36.294Z,5.77
2022-09-10T00:58:47.826Z,7.03
2022-09-10T01:02:56.872Z,6.43
2022-09-10T01:07:06.195Z,4.97
2022-09-10T01:11:38.020Z,6.93
2022-09-10T01:15:56.941Z,8.80
2022-09-10T01:20:45.717Z,9.90
2022-09-10T01:24:57.686Z,8.73
2022-09-10T01:29:16.540Z,5.97
2022-09-10T01:33:32.170Z,6.53
2022-09-10T01:37:45.360Z,7.80
2022-09-10T01:41:55.974Z,8.70
2022-09-10T01:46:23.255Z,7.17
2022-09-10T01:50:40.041Z,7.17
2022-09-10T01:55:01.643Z,5.07
2022-09-10T01:59:19.578Z,4.47
2022-09-10T02:03:31.144Z,5.27
2022-09-10T02:07:40.452Z,5.60
2022-09-10T02:11:51.608Z,5.27
2022-09-10T02:16:00.995Z,6.90
2022-09-10T02:20:15.044Z,7.53
2022-09-10T02:24:24.235Z,10.97
2022-09-10T02:28:33.452Z,6.27
2022-09-10T02:32:43.179Z,8.80
2022-09-10T02:36:57.722Z,7.10
2022-09-10T02:41:06.668Z,6.13
2022-09-10T02:45:15.854Z,3.80
2022-09-10T02:49:24.756Z,6.37
2022-09-10T02:53:36.185Z,5.23
2022-09-10T02:57:45.684Z,7.37
2022-09-10T03:01:56.654Z,4.23
2022-09-10T03:06:06.450Z,4.60
2022-09-10T03:10:17.007Z,5.00
2022-09-10T03:14:26.155Z,3.40
2022-09-10T03:18:35.763Z,4.10
2022-09-10T03:22:44.845Z,2.90
2022-09-10T03:26:55.557Z,4.97
2022-09-10T03:31:04.856Z,4.57
2022-09-10T03:35:14.112Z,4.17
2022-09-10T03:39:22.995Z,5.77
2022-09-10T03:43:33.428Z,6.63
2022-09-10T03:47:42.567Z,5.73
2022-09-10T03:51:51.497Z,7.23
2022-09-10T03:56:00.478Z,3.37
2022-09-10T04:00:13.790Z,5.47
2022-09-10T04:04:22.874Z,6.43
2022-09-10T04:08:31.847Z,3.60
2022-09-10T04:12:41.048Z,3.37
2022-09-10T04:16:52.647Z,3.80
2022-09-10T04:21:01.818Z,4.67
2022-09-10T04:25:11.563Z,5.83
2022-09-10T04:29:20.767Z,5.57
2022-09-10T04:33:31.097Z,6.03
2022-09-10T04:37:40.077Z,4.07
2022-09-10T04:41:49.037Z,1.90
2022-09-10T04:45:59.400Z,5.13
2022-09-10T04:50:11.548Z,2.30
2022-09-10T04:54:20.396Z,3.90
2022-09-10T04:58:29.375Z,4.03
2022-09-10T05:02:39.243Z,4.53
2022-09-10T05:06:50.542Z,4.33
2022-09-10T05:11:01.510Z,5.63
2022-09-10T05:15:11.512Z,3.93
2022-09-10T05:19:20.639Z,2.73
2022-09-10T05:23:31.180Z,3.63
2022-09-10T05:27:40.171Z,4.33
2022-09-10T05:31:49.159Z,6.80
2022-09-10T05:35:58.134Z,4.37
2022-09-10T05:40:10.926Z,2.73
2022-09-10T05:44:20.018Z,4.50
2022-09-10T05:48:29.052Z,4.13
2022-09-10T05:52:38.126Z,4.10
2022-09-10T05:56:49.002Z,2.93
2022-09-10T06:00:58.393Z,2.90
2022-09-10T06:05:07.855Z,2.43
2022-09-10T06:09:17.393Z,2.30
2022-09-10T06:13:28.051Z,2.67
2022-09-10T06:17:38.491Z,2.40
2022-09-10T06:21:47.783Z,2.00
2022-09-10T06:26:04.327Z,2.30
2022-09-10T06:30:15.890Z,5.40
2022-09-10T06:34:25.031Z,4.07
2022-09-10T06:38:35.146Z,2.80
2022-09-10T06:42:44.269Z,2.70
2022-09-10T06:51:25.159Z,2.17
2022-09-10T06:55:37.145Z,3.73
2022-09-10T06:59:46.347Z,2.53
2022-09-10T07:04:01.024Z,5.27
2022-09-10T07:08:10.925Z,2.77
2022-09-10T07:12:21.805Z,4.50
2022-09-10T07:16:30.824Z,3.50
2022-09-10T07:20:41.545Z,4.80
2022-09-10T07:24:51.765Z,3.07
2022-09-10T07:29:01.767Z,3.63
2022-09-10T07:33:11.932Z,3.67
2022-09-10T07:37:22.953Z,4.50
2022-09-10T07:41:34.915Z,3.37
2022-09-10T07:45:44.138Z,4.17
2022-09-10T07:49:53.793Z,4.73
2022-09-10T07:54:04.774Z,3.53
2022-09-10T07:58:13.814Z,4.33
2022-09-10T08:02:26.134Z,5.10
2022-09-10T08:06:35.853Z,2.60
2022-09-10T08:10:46.313Z,4.43
2022-09-10T08:15:00.293Z,5.50
2022-09-10T08:19:11.135Z,7.03
2022-09-10T08:23:20.432Z,3.67
2022-09-10T08:27:31.032Z,8.10
2022-09-10T08:31:40.152Z,3.57
2022-09-10T08:35:56.455Z,4.57
2022-09-10T08:40:06.842Z,4.27
2022-09-10T08:44:31.534Z,4.53
2022-09-10T08:48:41.374Z,5.10
2022-09-10T08:52:55.331Z,3.67
2022-09-10T08:57:05.795Z,5.37
2022-09-10T09:01:22.831Z,2.57
2022-09-10T09:05:41.052Z,2.10
2022-09-10T09:09:51.975Z,5.00
2022-09-10T09:14:24.432Z,4.83
2022-09-10T09:18:42.993Z,4.57
2022-09-10T09:22:55.532Z,2.30
2022-09-10T09:27:10.342Z,2.90
2022-09-10T09:31:22.769Z,2.47
2022-09-10T09:35:37.392Z,2.67
2022-09-10T09:39:54.568Z,1.33
2022-09-10T09:44:08.794Z,2.90
2022-09-10T09:48:20.777Z,3.13
2022-09-10T09:52:33.612Z,2.10
2022-09-10T09:56:47.973Z,4.00
2022-09-10T10:01:12.174Z,2.13
2022-09-10T10:05:26.274Z,3.43
2022-09-10T10:09:43.213Z,3.17
2022-09-10T10:13:53.373Z,4.07
2022-09-10T10:18:03.791Z,4.07
2022-09-10T10:22:26.173Z,2.33
2022-09-10T10:26:38.772Z,3.93
2022-09-10T10:30:54.776Z,1.33
2022-09-10T10:35:25.013Z,1.80
2022-09-10T10:39:56.557Z,1.53
2022-09-10T10:44:23.733Z,2.23
2022-09-10T10:48:45.056Z,2.67
2022-09-10T10:53:15.011Z,5.17
2022-09-10T10:57:32.853Z,2.10
2022-09-10T11:01:49.831Z,2.10
2022-09-10T11:06:07.414Z,2.60
2022-09-10T11:10:24.593Z,2.33
2022-09-10T11:14:41.294Z,1.70
2022-09-10T11:18:56.793Z,3.17
2022-09-10T11:23:15.213Z,2.57
2022-09-10T11:27:29.475Z,1.50
2022-09-10T11:31:44.391Z,5.00
2022-09-10T11:36:00.431Z,2.03
2022-09-10T11:40:21.534Z,3.27
2022-09-10T11:44:46.392Z,2.53
2022-09-10T11:49:03.951Z,3.30
2022-09-10T11:53:21.194Z,2.73
2022-09-10T11:57:53.351Z,3.40
2022-09-10T12:02:34.232Z,4.23
2022-09-10T12:06:55.592Z,2.37
2022-09-10T12:11:16.712Z,3.93
2022-09-10T12:15:28.251Z,3.27
2022-09-10T12:19:41.494Z,4.10
2022-09-10T12:23:50.793Z,2.30
2022-09-10T12:28:03.313Z,1.07
2022-09-10T12:32:30.917Z,4.00
2022-09-10T12:37:17.651Z,3.83
2022-09-10T12:42:02.152Z,3.57
2022-09-10T12:46:23.101Z,3.20
2022-09-10T12:50:38.195Z,2.10
2022-09-10T12:54:57.594Z,1.30
2022-09-10T12:59:26.893Z,2.93
2022-09-10T13:03:50.373Z,3.03
2022-09-10T13:08:08.548Z,2.80
2022-09-10T13:12:22.715Z,5.37
2022-09-10T13:16:42.833Z,3.60
2022-09-10T13:20:53.951Z,2.63
2022-09-10T13:25:07.613Z,2.97
2022-09-10T13:29:31.172Z,3.90
2022-09-10T13:33:59.211Z,3.20
2022-09-10T13:38:33.512Z,3.07
2022-09-10T13:43:06.694Z,5.37
2022-09-10T13:47:19.293Z,2.70
2022-09-10T13:51:34.032Z,2.97
2022-09-10T13:55:56.832Z,4.07
2022-09-10T14:00:09.893Z,1.90
2022-09-10T14:04:31.848Z,4.60
2022-09-10T14:08:47.092Z,3.20
2022-09-10T14:13:00.292Z,3.97
2022-09-10T14:17:15.115Z,3.47
2022-09-10T14:21:28.433Z,3.57
2022-09-10T14:25:39.392Z,2.43
2022-09-10T14:29:50.913Z,4.07
2022-09-10T14:34:06.051Z,3.63
2022-09-10T14:38:52.071Z,3.30
2022-09-10T14:43:20.074Z,3.37
2022-09-10T14:47:37.755Z,2.47
2022-09-10T14:51:54.196Z,2.73
2022-09-10T15:01:24.673Z,3.37
2022-09-10T15:05:35.592Z,2.57
2022-09-10T15:09:45.431Z,2.83
2022-09-10T15:13:56.272Z,2.97
2022-09-10T15:18:05.895Z,2.77
2022-09-10T15:22:23.274Z,2.57
2022-09-10T15:26:32.593Z,2.13
2022-09-10T15:30:42.057Z,2.73
2022-09-10T15:39:29.054Z,1.77
2022-09-10T15:43:54.292Z,2.47
2022-09-10T16:12:44.685Z,1.17
2022-09-10T16:21:59.687Z,2.23
2022-09-10T16:44:44.146Z,1.43
2022-09-10T17:16:44.352Z,1.13
2022-09-10T17:25:46.887Z,1.90
2022-09-10T17:29:56.488Z,1.07
2022-09-10T17:34:07.748Z,1.63
2022-09-10T17:51:37.908Z,1.33
2022-09-10T17:55:48.907Z,2.53
2022-09-10T17:59:58.091Z,1.77
2022-09-10T18:04:08.608Z,1.60
2022-09-10T18:08:32.647Z,2.70
2022-09-10T18:17:48.987Z,0.73
2022-09-10T18:26:39.806Z,2.63
2022-09-10T18:40:43.408Z,2.43
2022-09-10T18:49:49.769Z,1.53
2022-09-10T18:54:06.883Z,1.40
2022-09-10T19:09:05.824Z,0.83
2022-09-10T19:13:16.102Z,1.93
2022-09-10T19:17:40.442Z,1.00
2022-09-10T19:22:01.942Z,0.83
2022-09-10T19:40:22.641Z,1.00
2022-09-10T20:37:29.402Z,3.57
2022-09-10T20:41:41.035Z,1.33
2022-09-10T20:55:40.701Z,1.53
2022-09-10T21:18:07.463Z,1.13
